createdAt,value
2018-06-17T00:01:07.498Z,100958.00
2018-06-17T00:04:18.129Z,100958.00
2018-06-17T00:07:29.004Z,100961.00
2018-06-17T00:10:40.040Z,100958.00
2018-06-17T00:13:50.737Z,100961.00
2018-06-17T00:17:01.486Z,100958.00
2018-06-17T00:20:12.356Z,100958.00
2018-06-17T00:23:23.067Z,100964.00
2018-06-17T00:26:33.808Z,100967.00
2018-06-17T00:29:44.480Z,100961.00
2018-06-17T00:32:55.312Z,100955.00
2018-06-17T00:36:06.195Z,100961.00
2018-06-17T00:39:16.833Z,100959.00
2018-06-17T00:42:27.220Z,100960.00
2018-06-17T00:45:37.830Z,100965.00
2018-06-17T00:48:49.004Z,100972.00
2018-06-17T00:51:59.412Z,100969.00
2018-06-17T00:55:09.957Z,100973.00
2018-06-17T00:58:20.259Z,100958.00
2018-06-17T01:01:30.676Z,100960.00
2018-06-17T01:04:41.123Z,100962.00
2018-06-17T01:07:51.752Z,100964.00
2018-06-17T01:11:02.008Z,100962.00
2018-06-17T01:14:12.716Z,100965.00
2018-06-17T01:17:23.584Z,100965.00
2018-06-17T01:20:33.944Z,100970.00
2018-06-17T01:23:44.318Z,100966.00
2018-06-17T01:26:54.691Z,100960.00
2018-06-17T01:30:05.483Z,100967.00
2018-06-17T01:33:16.164Z,100972.00
2018-06-17T01:36:26.883Z,100978.00
2018-06-17T01:39:38.249Z,100973.00
2018-06-17T01:42:48.724Z,100967.00
2018-06-17T01:45:59.499Z,100969.00
2018-06-17T01:49:09.992Z,100965.00
2018-06-17T01:52:20.752Z,100961.00
2018-06-17T01:55:31.182Z,100973.00
2018-06-17T01:58:41.675Z,100972.00
2018-06-17T02:01:52.615Z,100975.00
2018-06-17T02:05:08.641Z,100973.00
2018-06-17T02:08:24.732Z,100966.00
2018-06-17T02:11:39.636Z,100969.00
2018-06-17T02:14:58.314Z,100969.00
2018-06-17T02:18:08.619Z,100965.00
2018-06-17T02:21:19.372Z,100969.00
2018-06-17T02:24:30.327Z,100961.00
2018-06-17T02:27:40.976Z,100974.00
2018-06-17T02:30:51.728Z,100980.00
2018-06-17T02:34:02.567Z,100979.00
2018-06-17T02:37:13.161Z,100982.00
2018-06-17T02:40:23.810Z,100990.00
2018-06-17T02:43:34.248Z,100988.00
2018-06-17T02:46:49.928Z,100994.00
2018-06-17T02:50:05.605Z,100982.00
2018-06-17T02:53:22.034Z,100984.00
2018-06-17T02:56:32.528Z,100975.00
2018-06-17T02:59:43.884Z,100980.00
2018-06-17T03:02:55.557Z,100985.00
2018-06-17T03:06:06.362Z,100989.00
2018-06-17T03:09:17.132Z,100973.00
2018-06-17T03:12:27.365Z,100982.00
2018-06-17T03:15:37.531Z,100980.00
2018-06-17T03:18:48.211Z,100988.00
2018-06-17T03:21:58.955Z,100994.00
2018-06-17T03:25:14.296Z,100996.00
2018-06-17T03:28:30.185Z,100995.00
2018-06-17T03:33:47.661Z,101003.00
2018-06-17T03:36:58.422Z,100989.00
2018-06-17T03:40:08.742Z,100986.00
2018-06-17T03:43:19.112Z,100987.00
2018-06-17T03:46:29.812Z,100990.00
2018-06-17T03:49:40.194Z,100992.00
2018-06-17T03:52:50.499Z,100978.00
2018-06-17T03:56:01.032Z,100989.00
2018-06-17T03:59:11.296Z,100987.00
2018-06-17T04:02:21.722Z,100986.00
2018-06-17T04:05:32.455Z,100986.00
2018-06-17T04:08:43.188Z,100990.00
2018-06-17T04:11:53.898Z,100987.00
2018-06-17T04:15:04.335Z,100981.00
2018-06-17T04:18:14.623Z,100986.00
2018-06-17T04:21:24.918Z,100980.00
2018-06-17T04:24:35.569Z,100985.00
2018-06-17T04:27:46.329Z,100977.00
2018-06-17T04:30:57.804Z,100984.00
2018-06-17T04:34:08.785Z,100981.00
2018-06-17T04:37:19.328Z,100975.00
2018-06-17T04:40:29.956Z,100981.00
2018-06-17T04:43:40.702Z,100990.00
2018-06-17T04:46:51.284Z,100988.00
2018-06-17T04:50:01.808Z,100985.00
2018-06-17T04:53:12.481Z,100988.00
2018-06-17T04:56:22.756Z,100985.00
2018-06-17T04:59:33.517Z,100992.00
2018-06-17T05:02:44.627Z,100994.00
2018-06-17T05:05:55.206Z,100994.00
2018-06-17T05:09:07.444Z,100984.00
2018-06-17T05:12:17.724Z,100987.00
2018-06-17T05:15:28.171Z,100989.00
2018-06-17T05:18:38.475Z,100994.00
2018-06-17T05:21:49.049Z,100986.00
2018-06-17T05:24:59.621Z,100986.00
2018-06-17T05:28:10.236Z,100990.00
2018-06-17T05:31:20.748Z,100987.00
2018-06-17T05:34:31.827Z,100984.00
2018-06-17T05:37:42.544Z,100985.00
2018-06-17T05:40:53.140Z,100987.00
2018-06-17T05:44:04.143Z,100986.00
2018-06-17T05:47:19.822Z,100997.00
2018-06-17T05:50:30.239Z,100997.00
2018-06-17T05:53:40.993Z,100993.00
2018-06-17T05:56:51.573Z,100985.00
2018-06-17T06:00:02.207Z,100993.00
2018-06-17T06:03:12.773Z,100993.00
2018-06-17T06:06:23.015Z,100987.00
2018-06-17T06:09:33.970Z,100989.00
2018-06-17T06:12:44.640Z,100997.00
2018-06-17T06:15:55.344Z,101001.00
2018-06-17T06:19:05.978Z,100995.00
2018-06-17T06:22:16.519Z,101002.00
2018-06-17T06:25:28.042Z,100955.00
2018-06-17T06:28:38.768Z,100998.00
2018-06-17T06:31:49.114Z,100998.00
2018-06-17T06:34:59.468Z,101001.00
2018-06-17T06:38:10.135Z,101005.00
2018-06-17T06:41:20.395Z,100989.00
2018-06-17T06:44:31.104Z,100995.00
2018-06-17T06:47:41.377Z,100997.00
2018-06-17T06:50:51.674Z,101005.00
2018-06-17T06:54:02.047Z,101005.00
2018-06-17T06:57:12.724Z,101004.00
2018-06-17T07:00:23.258Z,101009.00
2018-06-17T07:03:50.848Z,101009.00
2018-06-17T07:07:18.493Z,101009.00
2018-06-17T07:10:30.650Z,101003.00
2018-06-17T07:13:40.911Z,100984.00
2018-06-17T07:17:08.843Z,100991.00
2018-06-17T07:20:19.400Z,101015.00
2018-06-17T07:23:29.958Z,101018.00
2018-06-17T07:26:55.643Z,101030.00
2018-06-17T07:30:06.060Z,101023.00
2018-06-17T07:33:16.840Z,101023.00
2018-06-17T07:36:27.729Z,101034.00
2018-06-17T07:41:46.512Z,101031.00
2018-06-17T07:44:57.518Z,101028.00
2018-06-17T07:48:08.096Z,101035.00
2018-06-17T07:53:32.020Z,101035.00
2018-06-17T07:56:42.966Z,101018.00
2018-06-17T07:59:53.648Z,101042.00
2018-06-17T08:03:04.416Z,101043.00
2018-06-17T08:06:14.787Z,101048.00
2018-06-17T08:09:25.495Z,101040.00
2018-06-17T08:12:36.231Z,101046.00
2018-06-17T08:15:46.541Z,101034.00
2018-06-17T08:18:57.353Z,101040.00
2018-06-17T08:22:07.990Z,101043.00
2018-06-17T08:25:18.665Z,101039.00
2018-06-17T08:28:29.308Z,101027.00
2018-06-17T08:31:41.924Z,101041.00
2018-06-17T08:34:52.590Z,101034.00
2018-06-17T08:38:03.239Z,101051.00
2018-06-17T08:41:13.440Z,101046.00
2018-06-17T08:44:24.264Z,101045.00
2018-06-17T08:47:35.034Z,101046.00
2018-06-17T08:50:45.864Z,101030.00
2018-06-17T08:53:57.306Z,101045.00
2018-06-17T08:57:07.850Z,101040.00
2018-06-17T09:00:18.335Z,101050.00
2018-06-17T09:03:28.741Z,101052.00
2018-06-17T09:06:39.807Z,101046.00
2018-06-17T09:09:50.452Z,101050.00
2018-06-17T09:13:01.154Z,101056.00
2018-06-17T09:16:11.869Z,101053.00
2018-06-17T09:19:22.305Z,101053.00
2018-06-17T09:22:32.611Z,101048.00
2018-06-17T09:25:43.005Z,101058.00
2018-06-17T09:28:54.654Z,101051.00
2018-06-17T09:32:05.575Z,101053.00
2018-06-17T09:35:15.955Z,101061.00
2018-06-17T09:38:26.575Z,101068.00
2018-06-17T09:41:38.287Z,101070.00
2018-06-17T09:44:48.932Z,101063.00
2018-06-17T09:47:59.679Z,101073.00
2018-06-17T09:51:11.452Z,101065.00
2018-06-17T09:54:21.752Z,101073.00
2018-06-17T09:57:32.545Z,101063.00
2018-06-17T10:00:42.909Z,101066.00
2018-06-17T10:03:53.403Z,101063.00
2018-06-17T10:07:03.763Z,101066.00
2018-06-17T10:10:56.757Z,101070.00
2018-06-17T10:14:07.681Z,101073.00
2018-06-17T10:17:18.465Z,101084.00
2018-06-17T10:20:30.183Z,101087.00
2018-06-17T10:23:41.113Z,101087.00
2018-06-17T10:26:52.745Z,101096.00
2018-06-17T10:30:03.350Z,101083.00
2018-06-17T10:33:13.955Z,101076.00
2018-06-17T10:36:24.810Z,101082.00
2018-06-17T10:39:35.409Z,101089.00
2018-06-17T10:42:47.055Z,101092.00
2018-06-17T10:45:58.097Z,101098.00
2018-06-17T10:49:08.314Z,101105.00
2018-06-17T10:52:19.504Z,101093.00
2018-06-17T10:55:30.430Z,101109.00
2018-06-17T10:58:41.065Z,101098.00
2018-06-17T11:01:51.686Z,101111.00
2018-06-17T11:05:02.513Z,101109.00
2018-06-17T11:08:12.830Z,101112.00
2018-06-17T11:11:23.264Z,101103.00
2018-06-17T11:14:34.280Z,101103.00
2018-06-17T11:17:44.961Z,101114.00
2018-06-17T11:20:55.884Z,101114.00
2018-06-17T11:24:06.511Z,101123.00
2018-06-17T11:27:17.027Z,101110.00
2018-06-17T11:30:27.404Z,101118.00
2018-06-17T11:33:37.746Z,101125.00
2018-06-17T11:36:48.524Z,101126.00
2018-06-17T11:40:00.097Z,101123.00
2018-06-17T11:43:10.984Z,101120.00
2018-06-17T11:46:21.941Z,101121.00
2018-06-17T11:49:33.001Z,101130.00
2018-06-17T11:52:43.462Z,101134.00
2018-06-17T11:55:53.932Z,101136.00
2018-06-17T11:59:04.602Z,101133.00
2018-06-17T12:02:15.340Z,101142.00
2018-06-17T12:05:26.090Z,101147.00
2018-06-17T12:08:36.510Z,101142.00
2018-06-17T12:11:47.604Z,101142.00
2018-06-17T12:14:58.270Z,101140.00
2018-06-17T12:18:09.134Z,101144.00
2018-06-17T12:21:19.896Z,101145.00
2018-06-17T12:24:34.955Z,101155.00
2018-06-17T12:27:45.205Z,101146.00
2018-06-17T12:30:56.500Z,101156.00
2018-06-17T12:34:07.169Z,101145.00
2018-06-17T12:37:18.273Z,101144.00
2018-06-17T12:40:29.269Z,101147.00
2018-06-17T12:43:40.596Z,101154.00
2018-06-17T12:46:51.317Z,101152.00
2018-06-17T12:50:01.998Z,101149.00
2018-06-17T12:53:12.375Z,101154.00
2018-06-17T12:56:23.547Z,101158.00
2018-06-17T12:59:33.977Z,101158.00
2018-06-17T13:02:44.989Z,101159.00
2018-06-17T13:05:56.172Z,101156.00
2018-06-17T13:09:09.184Z,101170.00
2018-06-17T13:12:19.658Z,101169.00
2018-06-17T13:15:30.263Z,101164.00
2018-06-17T13:18:40.870Z,101153.00
2018-06-17T13:21:51.414Z,101179.00
2018-06-17T13:25:02.290Z,101174.00
2018-06-17T13:28:12.704Z,101186.00
2018-06-17T13:31:23.392Z,101173.00
2018-06-17T13:34:34.564Z,101185.00
2018-06-17T13:37:45.055Z,101182.00
2018-06-17T13:40:55.523Z,101178.00
2018-06-17T13:44:06.581Z,101163.00
2018-06-17T13:47:17.382Z,101174.00
2018-06-17T13:50:28.172Z,101177.00
2018-06-17T13:53:39.038Z,101178.00
2018-06-17T13:56:49.524Z,101166.00
2018-06-17T14:00:00.261Z,101177.00
2018-06-17T14:03:10.708Z,101167.00
2018-06-17T14:06:21.371Z,101160.00
2018-06-17T14:09:32.104Z,101168.00
2018-06-17T14:12:42.769Z,101160.00
2018-06-17T14:15:53.404Z,101169.00
2018-06-17T14:19:03.945Z,101177.00
2018-06-17T14:22:14.568Z,101179.00
2018-06-17T14:25:25.272Z,101175.00
2018-06-17T14:28:36.052Z,101182.00
2018-06-17T14:31:46.766Z,101180.00
2018-06-17T14:34:57.365Z,101175.00
2018-06-17T14:38:08.093Z,101177.00
2018-06-17T14:41:19.801Z,101174.00
2018-06-17T14:44:35.473Z,101177.00
2018-06-17T14:47:51.153Z,101177.00
2018-06-17T14:51:07.972Z,101179.00
2018-06-17T14:54:18.632Z,101189.00
2018-06-17T14:57:29.090Z,101188.00
2018-06-17T15:00:39.829Z,101184.00
2018-06-17T15:03:50.812Z,101184.00
2018-06-17T15:07:02.245Z,101201.00
2018-06-17T15:10:13.023Z,101193.00
2018-06-17T15:13:23.693Z,101192.00
2018-06-17T15:16:34.086Z,101188.00
2018-06-17T15:19:44.931Z,101202.00
2018-06-17T15:22:56.313Z,101188.00
2018-06-17T15:26:07.109Z,101182.00
2018-06-17T15:29:22.112Z,101176.00
2018-06-17T15:32:38.024Z,101183.00
2018-06-17T15:35:53.672Z,101184.00
2018-06-17T15:39:09.435Z,101175.00
2018-06-17T15:42:20.276Z,101179.00
2018-06-17T15:45:30.603Z,101179.00
2018-06-17T15:48:41.209Z,101173.00
2018-06-17T15:51:51.775Z,101188.00
2018-06-17T15:55:02.395Z,101169.00
2018-06-17T15:58:12.706Z,101163.00
2018-06-17T16:01:23.407Z,101164.00
2018-06-17T16:04:33.972Z,101152.00
2018-06-17T16:07:44.291Z,101151.00
2018-06-17T16:10:55.281Z,101164.00
2018-06-17T16:14:10.761Z,101174.00
2018-06-17T16:17:26.789Z,101169.00
2018-06-17T16:20:42.630Z,101174.00
2018-06-17T16:23:53.417Z,101184.00
2018-06-17T16:27:03.812Z,101188.00
2018-06-17T16:30:15.191Z,101200.00
2018-06-17T16:33:25.596Z,101199.00
2018-06-17T16:36:35.910Z,101194.00
2018-06-17T16:39:46.321Z,101204.00
2018-06-17T16:42:56.864Z,101205.00
2018-06-17T16:46:07.119Z,101204.00
2018-06-17T16:49:18.123Z,101212.00
2018-06-17T16:52:33.859Z,101217.00
2018-06-17T16:55:49.962Z,101221.00
2018-06-17T16:59:05.803Z,101220.00
2018-06-17T17:02:18.005Z,101229.00
2018-06-17T17:05:28.676Z,101227.00
2018-06-17T17:08:39.591Z,101224.00
2018-06-17T17:11:50.598Z,101211.00
2018-06-17T17:15:00.902Z,101202.00
2018-06-17T17:18:11.549Z,101202.00
2018-06-17T17:21:22.229Z,101209.00
2018-06-17T17:24:32.515Z,101222.00
2018-06-17T17:27:43.009Z,101230.00
2018-06-17T17:30:53.997Z,101235.00
2018-06-17T17:34:10.015Z,101242.00
2018-06-17T17:37:25.871Z,101244.00
2018-06-17T17:40:39.611Z,101247.00
2018-06-17T17:43:50.095Z,101249.00
2018-06-17T17:47:36.384Z,101246.00
2018-06-17T17:50:47.237Z,101245.00
2018-06-17T17:53:57.812Z,101234.00
2018-06-17T17:57:08.828Z,101242.00
2018-06-17T18:00:19.971Z,101254.00
2018-06-17T18:03:31.366Z,101247.00
2018-06-17T18:06:42.383Z,101256.00
2018-06-17T18:09:53.290Z,101259.00
2018-06-17T18:13:03.915Z,101256.00
2018-06-17T18:16:14.214Z,101251.00
2018-06-17T18:19:24.874Z,101260.00
2018-06-17T18:22:36.141Z,101257.00
2018-06-17T18:25:52.013Z,101256.00
2018-06-17T18:29:07.840Z,101255.00
2018-06-17T18:32:23.817Z,101252.00
2018-06-17T18:35:39.782Z,101254.00
2018-06-17T18:38:50.632Z,101257.00
2018-06-17T18:42:01.442Z,101257.00
2018-06-17T18:45:12.092Z,101257.00
2018-06-17T18:48:22.890Z,101252.00
2018-06-17T18:51:33.380Z,101258.00
2018-06-17T18:54:44.246Z,101263.00
2018-06-17T18:57:54.545Z,101265.00
2018-06-17T19:01:05.855Z,101265.00
2018-06-17T19:04:16.885Z,101263.00
2018-06-17T19:07:27.325Z,101270.00
2018-06-17T19:10:42.838Z,101280.00
2018-06-17T19:16:00.544Z,101282.00
2018-06-17T19:19:11.273Z,101300.00
2018-06-17T19:22:22.445Z,101313.00
2018-06-17T19:25:33.283Z,101314.00
2018-06-17T19:28:44.241Z,101330.00
2018-06-17T19:31:55.392Z,101327.00
2018-06-17T19:35:06.424Z,101334.00
2018-06-17T19:38:17.132Z,101347.00
2018-06-17T19:41:28.436Z,101347.00
2018-06-17T19:44:39.469Z,101355.00
2018-06-17T19:47:50.820Z,101354.00
2018-06-17T19:51:08.201Z,101363.00
2018-06-17T19:54:24.136Z,101362.00
2018-06-17T19:57:40.202Z,101361.00
2018-06-17T20:00:53.906Z,101363.00
2018-06-17T20:04:04.260Z,101365.00
2018-06-17T20:07:14.876Z,101361.00
2018-06-17T20:10:25.813Z,101367.00
2018-06-17T20:13:36.627Z,101371.00
2018-06-17T20:16:47.354Z,101376.00
2018-06-17T20:19:58.303Z,101374.00
2018-06-17T20:23:09.026Z,101377.00
2018-06-17T20:26:26.102Z,101373.00
2018-06-17T20:29:36.681Z,101375.00
2018-06-17T20:32:54.240Z,101373.00
2018-06-17T20:36:10.895Z,101374.00
2018-06-17T20:39:56.914Z,101378.00
2018-06-17T20:43:12.911Z,101378.00
2018-06-17T20:46:23.605Z,101387.00
2018-06-17T20:49:34.079Z,101388.00
2018-06-17T20:52:44.693Z,101383.00
2018-06-17T20:55:55.496Z,101382.00
2018-06-17T20:59:06.459Z,101386.00
2018-06-17T21:02:17.847Z,101389.00
2018-06-17T21:05:29.475Z,101386.00
2018-06-17T21:08:40.968Z,101381.00
2018-06-17T21:11:51.711Z,101382.00
2018-06-17T21:15:07.427Z,101386.00
2018-06-17T21:18:23.680Z,101386.00
2018-06-17T21:21:39.776Z,101388.00
2018-06-17T21:24:55.692Z,101386.00
2018-06-17T21:28:12.396Z,101387.00
2018-06-17T21:31:22.979Z,101391.00
2018-06-17T21:34:33.908Z,101392.00
2018-06-17T21:37:44.386Z,101398.00
2018-06-17T21:40:55.021Z,101393.00
2018-06-17T21:44:05.996Z,101387.00
2018-06-17T21:47:17.884Z,101389.00
2018-06-17T21:50:29.080Z,101389.00
2018-06-17T21:53:39.913Z,101389.00
2018-06-17T21:56:51.457Z,101385.00
2018-06-17T22:00:02.224Z,101390.00
2018-06-17T22:03:13.132Z,101389.00
2018-06-17T22:06:24.054Z,101387.00
2018-06-17T22:09:39.906Z,101388.00
2018-06-17T22:12:55.896Z,101384.00
2018-06-17T22:16:11.905Z,101369.00
2018-06-17T22:19:22.842Z,101393.00
2018-06-17T22:22:33.761Z,101389.00
2018-06-17T22:25:44.268Z,101394.00
2018-06-17T22:28:55.115Z,101395.00
2018-06-17T22:32:06.000Z,101398.00
2018-06-17T22:35:16.666Z,101397.00
2018-06-17T22:38:27.160Z,101394.00
2018-06-17T22:41:38.590Z,101390.00
2018-06-17T22:44:49.215Z,101391.00
2018-06-17T22:48:01.938Z,101396.00
2018-06-17T22:51:13.291Z,101395.00
2018-06-17T22:54:41.025Z,101390.00
2018-06-17T22:57:58.052Z,101395.00
2018-06-17T23:01:13.857Z,101392.00
2018-06-17T23:04:29.849Z,101392.00
2018-06-17T23:07:45.461Z,101398.00
2018-06-17T23:10:56.134Z,101401.00
2018-06-17T23:14:06.820Z,101411.00
2018-06-17T23:17:17.259Z,101412.00
2018-06-17T23:20:27.976Z,101412.00
2018-06-17T23:23:38.783Z,101418.00
2018-06-17T23:26:49.358Z,101415.00
2018-06-17T23:30:00.104Z,101422.00
2018-06-17T23:33:10.471Z,101433.00
2018-06-17T23:36:21.586Z,101434.00
2018-06-17T23:39:32.060Z,101436.00
2018-06-17T23:42:42.526Z,101430.00
2018-06-17T23:45:58.375Z,101430.00
2018-06-17T23:49:14.054Z,101426.00
2018-06-17T23:52:29.848Z,101412.00
2018-06-17T23:55:45.583Z,101414.00
2018-06-17T23:58:56.198Z,101408.00
